PADK Airport Information

Runway Information
Runway 05 Length 7790 ft width 200 ft
Elevation 17 ft Threshold 0 ft Heading 61
Runway 23 Length 7790 ft Width 200 ft
Elevation 15 ft Threshold 0 ft Heading 241
Runway 18 Length 7605 ft width 200 ft
Elevation 6 ft Threshold 0 ft Heading 185
Runway 36 Length 7605 ft Width 200 ft
Elevation 4 ft Threshold 0 ft Heading 5
Airport Frequencies
Airport Navaids
Type NDB-DME Name Mount Moffett Frequency 530 KHZ
Type TACAN Name Adak Frequency 113000 KHZ
Airport Weather Information & NOTAM
ADDS - METARS form results

(2307 UTC 18 February 2019)
Data provider http://aviationweather.gov/metar/data/
 
METAR text: PADK 182256Z AUTO 18003KT 10SM SCT028 BKN035 04/01 A3027 RMK AO2 SNE01 SLP249 P0000 T00390006
Conditions at: PADK (ADAK NAS , AK, US) observed 2256 UTC 18 February 2019
Temperature: 3.9°C (39°F)
Dewpoint: 0.6°C (33°F) [RH = 79%]
Pressure (altimeter): 30.27 inches Hg (1025.1 mb)
[Sea-level pressure: 1024.9 mb]
Winds: from the S (180 degrees) at 3 MPH (3 knots; 1.5 m/s)
Visibility: 10 or more miles (16+ km)
Ceiling: 3500 feet AGL
Clouds: scattered clouds at 2800 feet AGL
broken clouds at 3500 feet AGL
Weather: automated observation with no human augmentation;
there may or may not be significant weather present at this time

METAR text: PADK 182217Z AUTO 00000KT 10SM SCT030 BKN037 OVC050 03/01 A3027 RMK AO2 SNE01 P0000
Conditions at: PADK (ADAK NAS , AK, US) observed 2217 UTC 18 February 2019
Temperature: 3.0°C (37°F)
Dewpoint: 1.0°C (34°F) [RH = 87%]
Pressure (altimeter): 30.27 inches Hg (1025.1 mb)
Winds: calm
Visibility: 10 or more miles (16+ km)
Ceiling: 3700 feet AGL
Clouds: scattered clouds at 3000 feet AGL
broken clouds at 3700 feet AGL
overcast cloud deck at 5000 feet AGL
Weather: automated observation with no human augmentation;
there may or may not be significant weather present at this time